sensor_id;sensor_type;location;lat;lon;timestamp;temperature;humidity
45096;DHT22;30858;51.108;8.068;2022-07-23T00:00:08;16.40;99.90
45096;DHT22;30858;51.108;8.068;2022-07-23T00:02:34;16.40;99.90
45096;DHT22;30858;51.108;8.068;2022-07-23T00:04:59;16.40;99.90
45096;DHT22;30858;51.108;8.068;2022-07-23T00:07:25;16.40;99.90
45096;DHT22;30858;51.108;8.068;2022-07-23T00:09:50;16.40;99.90
45096;DHT22;30858;51.108;8.068;2022-07-23T00:12:16;16.50;99.90
45096;DHT22;30858;51.108;8.068;2022-07-23T00:14:42;16.40;99.90
45096;DHT22;30858;51.108;8.068;2022-07-23T00:17:07;16.40;99.90
45096;DHT22;30858;51.108;8.068;2022-07-23T00:19:33;16.40;99.90
45096;DHT22;30858;51.108;8.068;2022-07-23T00:21:58;16.40;99.90
45096;DHT22;30858;51.108;8.068;2022-07-23T00:24:24;16.40;99.90
45096;DHT22;30858;51.108;8.068;2022-07-23T00:26:49;16.40;99.90
45096;DHT22;30858;51.108;8.068;2022-07-23T00:29:15;16.50;99.90
45096;DHT22;30858;51.108;8.068;2022-07-23T00:31:40;16.50;99.90
45096;DHT22;30858;51.108;8.068;2022-07-23T00:34:06;16.40;99.90
45096;DHT22;30858;51.108;8.068;2022-07-23T00:36:32;16.40;99.90
45096;DHT22;30858;51.108;8.068;2022-07-23T00:38:57;16.40;99.90
45096;DHT22;30858;51.108;8.068;2022-07-23T00:41:23;16.30;99.90
45096;DHT22;30858;51.108;8.068;2022-07-23T00:43:49;16.30;99.90
45096;DHT22;30858;51.108;8.068;2022-07-23T00:46:22;16.30;99.90
45096;DHT22;30858;51.108;8.068;2022-07-23T00:48:48;16.30;99.90
45096;DHT22;30858;51.108;8.068;2022-07-23T00:51:17;16.20;99.90
45096;DHT22;30858;51.108;8.068;2022-07-23T00:53:43;16.30;99.90
45096;DHT22;30858;51.108;8.068;2022-07-23T00:56:10;16.30;99.90
45096;DHT22;30858;51.108;8.068;2022-07-23T00:58:36;16.30;99.90
45096;DHT22;30858;51.108;8.068;2022-07-23T01:01:03;16.30;99.90
45096;DHT22;30858;51.108;8.068;2022-07-23T01:03:28;16.20;99.90
45096;DHT22;30858;51.108;8.068;2022-07-23T01:05:54;16.30;99.90
45096;DHT22;30858;51.108;8.068;2022-07-23T01:08:20;16.30;99.90
45096;DHT22;30858;51.108;8.068;2022-07-23T01:10:47;16.30;99.90
45096;DHT22;30858;51.108;8.068;2022-07-23T01:13:13;16.20;99.90
45096;DHT22;30858;51.108;8.068;2022-07-23T01:15:39;16.30;99.90
45096;DHT22;30858;51.108;8.068;2022-07-23T01:18:06;16.30;99.90
45096;DHT22;30858;51.108;8.068;2022-07-23T01:20:33;16.30;99.90
45096;DHT22;30858;51.108;8.068;2022-07-23T01:22:58;16.30;99.90
45096;DHT22;30858;51.108;8.068;2022-07-23T01:25:24;16.30;99.90
45096;DHT22;30858;51.108;8.068;2022-07-23T01:27:52;16.30;99.90
45096;DHT22;30858;51.108;8.068;2022-07-23T01:30:17;16.30;99.90
45096;DHT22;30858;51.108;8.068;2022-07-23T01:32:43;16.20;99.90
45096;DHT22;30858;51.108;8.068;2022-07-23T01:35:09;16.20;99.90
45096;DHT22;30858;51.108;8.068;2022-07-23T01:37:36;16.20;99.90
45096;DHT22;30858;51.108;8.068;2022-07-23T01:40:02;16.20;99.90
45096;DHT22;30858;51.108;8.068;2022-07-23T01:42:27;16.20;99.90
45096;DHT22;30858;51.108;8.068;2022-07-23T01:44:53;16.30;99.90
45096;DHT22;30858;51.108;8.068;2022-07-23T01:47:18;16.30;99.90
45096;DHT22;30858;51.108;8.068;2022-07-23T01:49:44;16.30;99.90
45096;DHT22;30858;51.108;8.068;2022-07-23T01:52:09;16.20;99.90
45096;DHT22;30858;51.108;8.068;2022-07-23T01:54:37;16.20;99.90
45096;DHT22;30858;51.108;8.068;2022-07-23T01:57:04;16.20;99.90
45096;DHT22;30858;51.108;8.068;2022-07-23T01:59:30;16.20;99.90
45096;DHT22;30858;51.108;8.068;2022-07-23T02:01:56;16.20;99.90
45096;DHT22;30858;51.108;8.068;2022-07-23T02:04:23;16.20;99.90
45096;DHT22;30858;51.108;8.068;2022-07-23T02:06:50;16.30;99.90
45096;DHT22;30858;51.108;8.068;2022-07-23T02:09:16;16.20;99.90
45096;DHT22;30858;51.108;8.068;2022-07-23T02:11:41;16.20;99.90
45096;DHT22;30858;51.108;8.068;2022-07-23T02:14:07;16.20;99.90
45096;DHT22;30858;51.108;8.068;2022-07-23T02:16:33;16.20;99.90
45096;DHT22;30858;51.108;8.068;2022-07-23T02:18:59;16.30;99.90
45096;DHT22;30858;51.108;8.068;2022-07-23T02:21:24;16.30;99.90
45096;DHT22;30858;51.108;8.068;2022-07-23T02:23:50;16.30;99.90
45096;DHT22;30858;51.108;8.068;2022-07-23T02:26:15;16.20;99.90
45096;DHT22;30858;51.108;8.068;2022-07-23T02:28:41;16.30;99.90
45096;DHT22;30858;51.108;8.068;2022-07-23T02:31:06;16.20;99.90
45096;DHT22;30858;51.108;8.068;2022-07-23T02:33:33;16.30;99.90
45096;DHT22;30858;51.108;8.068;2022-07-23T02:35:59;16.40;99.90
45096;DHT22;30858;51.108;8.068;2022-07-23T02:38:24;16.30;99.90
45096;DHT22;30858;51.108;8.068;2022-07-23T02:40:50;16.30;99.90
45096;DHT22;30858;51.108;8.068;2022-07-23T02:43:15;16.20;99.90
45096;DHT22;30858;51.108;8.068;2022-07-23T02:45:41;16.20;99.90
45096;DHT22;30858;51.108;8.068;2022-07-23T02:48:06;16.20;99.90
45096;DHT22;30858;51.108;8.068;2022-07-23T02:50:32;16.20;99.90
45096;DHT22;30858;51.108;8.068;2022-07-23T02:52:57;16.30;99.90
45096;DHT22;30858;51.108;8.068;2022-07-23T02:55:23;16.30;99.90
45096;DHT22;30858;51.108;8.068;2022-07-23T02:57:49;16.30;99.90
45096;DHT22;30858;51.108;8.068;2022-07-23T03:00:14;16.40;99.90
45096;DHT22;30858;51.108;8.068;2022-07-23T03:02:40;16.40;99.90
45096;DHT22;30858;51.108;8.068;2022-07-23T03:05:06;16.30;99.90
45096;DHT22;30858;51.108;8.068;2022-07-23T03:07:31;16.40;99.90
45096;DHT22;30858;51.108;8.068;2022-07-23T03:09:57;16.30;99.90
45096;DHT22;30858;51.108;8.068;2022-07-23T03:12:22;16.20;99.90
45096;DHT22;30858;51.108;8.068;2022-07-23T03:14:48;16.30;99.90
45096;DHT22;30858;51.108;8.068;2022-07-23T03:17:13;16.30;99.90
45096;DHT22;30858;51.108;8.068;2022-07-23T03:19:39;16.20;99.90
45096;DHT22;30858;51.108;8.068;2022-07-23T03:22:05;16.20;99.90
45096;DHT22;30858;51.108;8.068;2022-07-23T03:24:30;16.20;99.90
45096;DHT22;30858;51.108;8.068;2022-07-23T03:27:15;16.10;99.90
45096;DHT22;30858;51.108;8.068;2022-07-23T03:29:40;16.00;99.90
45096;DHT22;30858;51.108;8.068;2022-07-23T03:32:06;16.00;99.90
45096;DHT22;30858;51.108;8.068;2022-07-23T03:34:32;16.00;99.90
45096;DHT22;30858;51.108;8.068;2022-07-23T03:36:57;15.90;99.90
45096;DHT22;30858;51.108;8.068;2022-07-23T03:39:23;16.00;99.90
45096;DHT22;30858;51.108;8.068;2022-07-23T03:41:48;16.00;99.90
45096;DHT22;30858;51.108;8.068;2022-07-23T03:44:14;15.90;99.90
45096;DHT22;30858;51.108;8.068;2022-07-23T03:46:39;15.90;99.90
45096;DHT22;30858;51.108;8.068;2022-07-23T03:49:05;15.80;99.90
45096;DHT22;30858;51.108;8.068;2022-07-23T03:51:30;15.70;99.90
45096;DHT22;30858;51.108;8.068;2022-07-23T03:53:56;15.70;99.90
45096;DHT22;30858;51.108;8.068;2022-07-23T03:56:22;15.60;99.90
45096;DHT22;30858;51.108;8.068;2022-07-23T03:58:47;15.60;99.90
45096;DHT22;30858;51.108;8.068;2022-07-23T04:01:13;15.60;99.90
45096;DHT22;30858;51.108;8.068;2022-07-23T04:03:39;15.60;99.90
45096;DHT22;30858;51.108;8.068;2022-07-23T04:06:05;15.60;99.90
45096;DHT22;30858;51.108;8.068;2022-07-23T04:08:30;15.50;99.90
45096;DHT22;30858;51.108;8.068;2022-07-23T04:10:56;15.60;99.90
45096;DHT22;30858;51.108;8.068;2022-07-23T04:13:22;15.50;99.90
45096;DHT22;30858;51.108;8.068;2022-07-23T04:15:47;15.50;99.90
45096;DHT22;30858;51.108;8.068;2022-07-23T04:18:13;15.50;99.90
45096;DHT22;30858;51.108;8.068;2022-07-23T04:20:38;15.50;99.90
45096;DHT22;30858;51.108;8.068;2022-07-23T04:23:04;15.50;99.90
45096;DHT22;30858;51.108;8.068;2022-07-23T04:25:30;15.40;99.90
45096;DHT22;30858;51.108;8.068;2022-07-23T04:27:55;15.40;99.90
45096;DHT22;30858;51.108;8.068;2022-07-23T04:30:21;15.40;99.90
45096;DHT22;30858;51.108;8.068;2022-07-23T04:32:46;15.30;99.90
45096;DHT22;30858;51.108;8.068;2022-07-23T04:35:12;15.20;99.90
45096;DHT22;30858;51.108;8.068;2022-07-23T04:37:37;15.20;99.90
45096;DHT22;30858;51.108;8.068;2022-07-23T04:40:03;15.20;99.90
45096;DHT22;30858;51.108;8.068;2022-07-23T04:42:29;15.20;99.90
45096;DHT22;30858;51.108;8.068;2022-07-23T04:44:54;15.20;99.90
45096;DHT22;30858;51.108;8.068;2022-07-23T04:47:20;15.20;99.90
45096;DHT22;30858;51.108;8.068;2022-07-23T04:49:45;15.30;99.90
45096;DHT22;30858;51.108;8.068;2022-07-23T04:52:11;15.30;99.90
45096;DHT22;30858;51.108;8.068;2022-07-23T04:54:37;15.30;99.90
45096;DHT22;30858;51.108;8.068;2022-07-23T04:57:02;15.30;99.90
45096;DHT22;30858;51.108;8.068;2022-07-23T04:59:28;15.30;99.90
45096;DHT22;30858;51.108;8.068;2022-07-23T05:01:53;15.40;99.90
45096;DHT22;30858;51.108;8.068;2022-07-23T05:04:19;15.40;99.90
45096;DHT22;30858;51.108;8.068;2022-07-23T05:06:44;15.30;99.90
45096;DHT22;30858;51.108;8.068;2022-07-23T05:09:10;15.40;99.90
45096;DHT22;30858;51.108;8.068;2022-07-23T05:11:35;15.40;99.90
45096;DHT22;30858;51.108;8.068;2022-07-23T05:14:01;15.50;99.90
45096;DHT22;30858;51.108;8.068;2022-07-23T05:16:27;15.70;99.90
45096;DHT22;30858;51.108;8.068;2022-07-23T05:18:52;15.70;99.90
45096;DHT22;30858;51.108;8.068;2022-07-23T05:21:19;15.80;99.90
45096;DHT22;30858;51.108;8.068;2022-07-23T05:23:44;15.80;99.90
45096;DHT22;30858;51.108;8.068;2022-07-23T05:26:10;15.90;99.90
45096;DHT22;30858;51.108;8.068;2022-07-23T05:28:36;16.00;99.90
45096;DHT22;30858;51.108;8.068;2022-07-23T05:31:01;16.20;99.90
45096;DHT22;30858;51.108;8.068;2022-07-23T05:33:29;16.30;99.90
45096;DHT22;30858;51.108;8.068;2022-07-23T05:36:03;16.40;99.90
45096;DHT22;30858;51.108;8.068;2022-07-23T05:38:29;16.40;99.90
45096;DHT22;30858;51.108;8.068;2022-07-23T05:40:55;16.50;99.90
45096;DHT22;30858;51.108;8.068;2022-07-23T05:43:20;16.40;99.90
45096;DHT22;30858;51.108;8.068;2022-07-23T05:45:46;16.40;99.90
45096;DHT22;30858;51.108;8.068;2022-07-23T05:48:11;16.50;99.90
45096;DHT22;30858;51.108;8.068;2022-07-23T05:50:37;16.50;99.90
45096;DHT22;30858;51.108;8.068;2022-07-23T05:53:03;16.60;99.90
45096;DHT22;30858;51.108;8.068;2022-07-23T05:55:29;16.50;99.90
45096;DHT22;30858;51.108;8.068;2022-07-23T05:57:57;16.50;99.90
45096;DHT22;30858;51.108;8.068;2022-07-23T06:00:22;16.50;99.90
45096;DHT22;30858;51.108;8.068;2022-07-23T06:02:48;16.60;99.90
45096;DHT22;30858;51.108;8.068;2022-07-23T06:05:13;16.70;99.90
45096;DHT22;30858;51.108;8.068;2022-07-23T06:07:39;16.70;99.90
45096;DHT22;30858;51.108;8.068;2022-07-23T06:10:05;16.70;99.90
45096;DHT22;30858;51.108;8.068;2022-07-23T06:12:31;16.70;99.90
45096;DHT22;30858;51.108;8.068;2022-07-23T06:14:57;16.70;99.90
45096;DHT22;30858;51.108;8.068;2022-07-23T06:17:22;16.80;99.90
45096;DHT22;30858;51.108;8.068;2022-07-23T06:19:48;16.90;99.90
45096;DHT22;30858;51.108;8.068;2022-07-23T06:22:13;17.00;99.90
45096;DHT22;30858;51.108;8.068;2022-07-23T06:24:39;17.10;99.90
45096;DHT22;30858;51.108;8.068;2022-07-23T06:27:04;17.30;99.90
45096;DHT22;30858;51.108;8.068;2022-07-23T06:29:30;17.70;99.90
45096;DHT22;30858;51.108;8.068;2022-07-23T06:31:56;18.00;99.90
45096;DHT22;30858;51.108;8.068;2022-07-23T06:34:21;18.30;99.90
45096;DHT22;30858;51.108;8.068;2022-07-23T06:36:47;18.50;99.90
45096;DHT22;30858;51.108;8.068;2022-07-23T06:39:12;18.70;99.90
45096;DHT22;30858;51.108;8.068;2022-07-23T06:41:38;18.90;99.90
45096;DHT22;30858;51.108;8.068;2022-07-23T06:44:04;19.00;99.90
45096;DHT22;30858;51.108;8.068;2022-07-23T06:46:29;19.20;99.90
45096;DHT22;30858;51.108;8.068;2022-07-23T06:48:55;19.30;99.90
45096;DHT22;30858;51.108;8.068;2022-07-23T06:51:20;19.50;99.90
45096;DHT22;30858;51.108;8.068;2022-07-23T06:53:46;19.60;99.90
45096;DHT22;30858;51.108;8.068;2022-07-23T06:56:12;19.70;99.90
45096;DHT22;30858;51.108;8.068;2022-07-23T06:58:37;19.70;99.90
45096;DHT22;30858;51.108;8.068;2022-07-23T07:01:03;19.70;99.90
45096;DHT22;30858;51.108;8.068;2022-07-23T07:03:28;19.70;99.90
45096;DHT22;30858;51.108;8.068;2022-07-23T07:05:54;19.60;99.90
45096;DHT22;30858;51.108;8.068;2022-07-23T07:08:19;19.70;99.90
45096;DHT22;30858;51.108;8.068;2022-07-23T07:10:46;19.70;99.90
45096;DHT22;30858;51.108;8.068;2022-07-23T07:13:12;19.90;99.90
45096;DHT22;30858;51.108;8.068;2022-07-23T07:15:38;20.00;99.90
45096;DHT22;30858;51.108;8.068;2022-07-23T07:18:03;20.10;99.90
45096;DHT22;30858;51.108;8.068;2022-07-23T07:20:29;20.10;99.90
45096;DHT22;30858;51.108;8.068;2022-07-23T07:22:54;20.10;99.90
45096;DHT22;30858;51.108;8.068;2022-07-23T07:25:20;20.20;99.90
45096;DHT22;30858;51.108;8.068;2022-07-23T07:27:46;20.00;99.90
45096;DHT22;30858;51.108;8.068;2022-07-23T07:30:12;20.10;99.90
45096;DHT22;30858;51.108;8.068;2022-07-23T07:32:38;20.10;99.90
45096;DHT22;30858;51.108;8.068;2022-07-23T07:35:04;20.20;99.90
45096;DHT22;30858;51.108;8.068;2022-07-23T07:37:30;20.40;99.90
45096;DHT22;30858;51.108;8.068;2022-07-23T07:39:56;20.80;99.90
45096;DHT22;30858;51.108;8.068;2022-07-23T07:42:21;20.80;99.90
45096;DHT22;30858;51.108;8.068;2022-07-23T07:44:47;20.80;99.90
45096;DHT22;30858;51.108;8.068;2022-07-23T07:47:12;20.90;99.90
45096;DHT22;30858;51.108;8.068;2022-07-23T07:49:41;21.10;99.90
45096;DHT22;30858;51.108;8.068;2022-07-23T07:52:06;21.20;99.90
45096;DHT22;30858;51.108;8.068;2022-07-23T07:54:32;21.40;99.90
45096;DHT22;30858;51.108;8.068;2022-07-23T07:56:58;21.50;99.90
45096;DHT22;30858;51.108;8.068;2022-07-23T07:59:23;21.60;99.90
45096;DHT22;30858;51.108;8.068;2022-07-23T08:01:49;21.60;99.90
45096;DHT22;30858;51.108;8.068;2022-07-23T08:04:14;21.50;99.90
45096;DHT22;30858;51.108;8.068;2022-07-23T08:06:40;21.60;99.90
45096;DHT22;30858;51.108;8.068;2022-07-23T08:09:05;21.60;99.90
45096;DHT22;30858;51.108;8.068;2022-07-23T08:11:31;21.30;99.90
45096;DHT22;30858;51.108;8.068;2022-07-23T08:13:56;21.30;99.90
45096;DHT22;30858;51.108;8.068;2022-07-23T08:16:22;21.40;99.90
45096;DHT22;30858;51.108;8.068;2022-07-23T08:18:47;21.80;99.90
45096;DHT22;30858;51.108;8.068;2022-07-23T08:21:13;21.80;99.90
45096;DHT22;30858;51.108;8.068;2022-07-23T08:23:39;22.10;99.90
45096;DHT22;30858;51.108;8.068;2022-07-23T08:26:04;22.30;99.90
45096;DHT22;30858;51.108;8.068;2022-07-23T08:28:30;22.10;99.90
45096;DHT22;30858;51.108;8.068;2022-07-23T08:30:59;22.30;99.90
45096;DHT22;30858;51.108;8.068;2022-07-23T08:33:25;22.40;99.90
45096;DHT22;30858;51.108;8.068;2022-07-23T08:35:51;22.40;99.90
45096;DHT22;30858;51.108;8.068;2022-07-23T08:38:20;22.50;99.90
45096;DHT22;30858;51.108;8.068;2022-07-23T08:40:51;22.40;99.90
45096;DHT22;30858;51.108;8.068;2022-07-23T08:43:20;22.10;99.90
45096;DHT22;30858;51.108;8.068;2022-07-23T08:45:51;21.90;99.90
45096;DHT22;30858;51.108;8.068;2022-07-23T08:48:19;22.00;99.90
45096;DHT22;30858;51.108;8.068;2022-07-23T08:50:53;22.20;99.90
45096;DHT22;30858;51.108;8.068;2022-07-23T08:53:20;22.00;99.90
45096;DHT22;30858;51.108;8.068;2022-07-23T08:55:47;22.00;99.90
45096;DHT22;30858;51.108;8.068;2022-07-23T08:58:13;22.50;99.90
45096;DHT22;30858;51.108;8.068;2022-07-23T09:00:39;22.80;99.90
45096;DHT22;30858;51.108;8.068;2022-07-23T09:03:05;22.90;99.90
45096;DHT22;30858;51.108;8.068;2022-07-23T09:05:30;23.00;99.90
45096;DHT22;30858;51.108;8.068;2022-07-23T09:08:15;22.90;99.90
45096;DHT22;30858;51.108;8.068;2022-07-23T09:10:55;23.00;99.90
45096;DHT22;30858;51.108;8.068;2022-07-23T09:13:52;22.70;99.90
45096;DHT22;30858;51.108;8.068;2022-07-23T09:16:19;22.70;99.90
45096;DHT22;30858;51.108;8.068;2022-07-23T09:18:50;23.00;99.90
45096;DHT22;30858;51.108;8.068;2022-07-23T09:23:52;23.00;99.90
45096;DHT22;30858;51.108;8.068;2022-07-23T09:28:55;23.10;99.90
45096;DHT22;30858;51.108;8.068;2022-07-23T09:31:23;23.10;99.90
45096;DHT22;30858;51.108;8.068;2022-07-23T09:33:49;23.30;99.90
45096;DHT22;30858;51.108;8.068;2022-07-23T09:36:14;23.40;99.90
45096;DHT22;30858;51.108;8.068;2022-07-23T09:38:50;23.30;99.90
45096;DHT22;30858;51.108;8.068;2022-07-23T09:41:16;23.40;99.90
45096;DHT22;30858;51.108;8.068;2022-07-23T09:43:42;23.50;99.90
45096;DHT22;30858;51.108;8.068;2022-07-23T09:48:50;23.80;99.90
45096;DHT22;30858;51.108;8.068;2022-07-23T09:51:17;23.60;99.90
45096;DHT22;30858;51.108;8.068;2022-07-23T09:54:01;23.70;99.90
45096;DHT22;30858;51.108;8.068;2022-07-23T09:56:28;23.80;99.90
45096;DHT22;30858;51.108;8.068;2022-07-23T09:58:54;23.70;99.90
45096;DHT22;30858;51.108;8.068;2022-07-23T10:01:38;23.90;99.90
45096;DHT22;30858;51.108;8.068;2022-07-23T10:04:05;24.00;99.90
45096;DHT22;30858;51.108;8.068;2022-07-23T10:06:31;24.30;99.90
45096;DHT22;30858;51.108;8.068;2022-07-23T10:08:58;24.40;99.90
45096;DHT22;30858;51.108;8.068;2022-07-23T10:11:27;24.50;99.90
45096;DHT22;30858;51.108;8.068;2022-07-23T10:13:54;24.50;99.90
45096;DHT22;30858;51.108;8.068;2022-07-23T10:16:28;24.30;99.90
45096;DHT22;30858;51.108;8.068;2022-07-23T10:18:54;24.30;99.90
45096;DHT22;30858;51.108;8.068;2022-07-23T10:21:34;24.40;99.90
45096;DHT22;30858;51.108;8.068;2022-07-23T10:32:37;24.80;99.90
45096;DHT22;30858;51.108;8.068;2022-07-23T10:37:56;24.70;99.90
45096;DHT22;30858;51.108;8.068;2022-07-23T10:40:24;24.70;99.90
45096;DHT22;30858;51.108;8.068;2022-07-23T10:42:52;25.00;99.90
45096;DHT22;30858;51.108;8.068;2022-07-23T10:45:34;25.00;99.90
45096;DHT22;30858;51.108;8.068;2022-07-23T10:48:18;25.30;99.90
45096;DHT22;30858;51.108;8.068;2022-07-23T10:51:05;25.60;99.90
45096;DHT22;30858;51.108;8.068;2022-07-23T10:56:49;26.20;99.90
45096;DHT22;30858;51.108;8.068;2022-07-23T10:59:15;26.10;99.90
45096;DHT22;30858;51.108;8.068;2022-07-23T11:01:41;25.80;99.90
45096;DHT22;30858;51.108;8.068;2022-07-23T11:04:06;26.00;99.90
45096;DHT22;30858;51.108;8.068;2022-07-23T11:09:37;26.50;99.90
45096;DHT22;30858;51.108;8.068;2022-07-23T11:15:08;26.30;99.90
45096;DHT22;30858;51.108;8.068;2022-07-23T11:25:10;26.70;99.90
45096;DHT22;30858;51.108;8.068;2022-07-23T11:27:45;27.10;99.90
45096;DHT22;30858;51.108;8.068;2022-07-23T11:35:32;26.50;99.90
45096;DHT22;30858;51.108;8.068;2022-07-23T11:40:43;27.00;99.90
45096;DHT22;30858;51.108;8.068;2022-07-23T11:43:10;26.70;99.90
45096;DHT22;30858;51.108;8.068;2022-07-23T11:48:03;27.80;97.60
45096;DHT22;30858;51.108;8.068;2022-07-23T11:50:30;27.40;97.30
45096;DHT22;30858;51.108;8.068;2022-07-23T11:52:55;27.50;97.60
45096;DHT22;30858;51.108;8.068;2022-07-23T11:55:22;27.40;96.00
45096;DHT22;30858;51.108;8.068;2022-07-23T11:57:47;27.30;98.30
45096;DHT22;30858;51.108;8.068;2022-07-23T12:00:15;27.00;98.10
45096;DHT22;30858;51.108;8.068;2022-07-23T12:02:53;25.90;99.90
45096;DHT22;30858;51.108;8.068;2022-07-23T12:05:23;26.60;99.90
45096;DHT22;30858;51.108;8.068;2022-07-23T12:07:51;26.90;99.90
45096;DHT22;30858;51.108;8.068;2022-07-23T12:10:34;27.00;99.90
45096;DHT22;30858;51.108;8.068;2022-07-23T12:13:03;27.70;99.90
45096;DHT22;30858;51.108;8.068;2022-07-23T12:15:33;27.90;99.50
45096;DHT22;30858;51.108;8.068;2022-07-23T12:18:00;28.30;95.60
45096;DHT22;30858;51.108;8.068;2022-07-23T12:20:46;28.00;94.80
45096;DHT22;30858;51.108;8.068;2022-07-23T12:23:16;28.20;95.60
45096;DHT22;30858;51.108;8.068;2022-07-23T12:25:43;28.30;95.40
45096;DHT22;30858;51.108;8.068;2022-07-23T12:28:17;28.70;94.10
45096;DHT22;30858;51.108;8.068;2022-07-23T12:33:25;28.10;91.60
45096;DHT22;30858;51.108;8.068;2022-07-23T12:35:54;27.20;96.70
45096;DHT22;30858;51.108;8.068;2022-07-23T12:38:21;27.20;93.80
45096;DHT22;30858;51.108;8.068;2022-07-23T12:40:57;27.60;96.70
45096;DHT22;30858;51.108;8.068;2022-07-23T12:43:28;28.00;94.10
45096;DHT22;30858;51.108;8.068;2022-07-23T12:46:06;28.00;94.20
45096;DHT22;30858;51.108;8.068;2022-07-23T12:48:34;28.00;95.30
45096;DHT22;30858;51.108;8.068;2022-07-23T12:53:52;27.80;92.40
45096;DHT22;30858;51.108;8.068;2022-07-23T12:56:27;27.40;95.00
45096;DHT22;30858;51.108;8.068;2022-07-23T12:58:56;28.10;92.70
45096;DHT22;30858;51.108;8.068;2022-07-23T13:06:40;28.40;93.40
45096;DHT22;30858;51.108;8.068;2022-07-23T13:09:07;28.80;91.10
45096;DHT22;30858;51.108;8.068;2022-07-23T13:11:33;29.00;88.20
45096;DHT22;30858;51.108;8.068;2022-07-23T13:14:00;29.10;89.50
45096;DHT22;30858;51.108;8.068;2022-07-23T13:16:26;28.60;88.40
45096;DHT22;30858;51.108;8.068;2022-07-23T13:18:52;28.20;88.60
45096;DHT22;30858;51.108;8.068;2022-07-23T13:21:18;28.30;89.20
45096;DHT22;30858;51.108;8.068;2022-07-23T13:23:43;27.90;90.30
45096;DHT22;30858;51.108;8.068;2022-07-23T13:26:09;28.10;90.70
45096;DHT22;30858;51.108;8.068;2022-07-23T13:28:35;28.50;90.50
45096;DHT22;30858;51.108;8.068;2022-07-23T13:31:00;29.00;88.80
45096;DHT22;30858;51.108;8.068;2022-07-23T13:33:26;29.00;87.30
45096;DHT22;30858;51.108;8.068;2022-07-23T13:35:52;28.80;86.20
45096;DHT22;30858;51.108;8.068;2022-07-23T13:38:19;28.80;88.70
45096;DHT22;30858;51.108;8.068;2022-07-23T13:40:48;28.60;88.10
45096;DHT22;30858;51.108;8.068;2022-07-23T13:43:16;28.80;90.50
45096;DHT22;30858;51.108;8.068;2022-07-23T13:45:43;29.00;86.80
45096;DHT22;30858;51.108;8.068;2022-07-23T13:48:10;28.30;88.40
45096;DHT22;30858;51.108;8.068;2022-07-23T13:50:36;27.50;91.30
45096;DHT22;30858;51.108;8.068;2022-07-23T13:53:06;27.80;90.40
45096;DHT22;30858;51.108;8.068;2022-07-23T13:55:33;28.20;91.60
45096;DHT22;30858;51.108;8.068;2022-07-23T13:57:59;28.10;88.60
45096;DHT22;30858;51.108;8.068;2022-07-23T14:00:25;27.50;90.10
45096;DHT22;30858;51.108;8.068;2022-07-23T14:02:50;27.60;90.30
45096;DHT22;30858;51.108;8.068;2022-07-23T14:05:16;27.10;91.10
45096;DHT22;30858;51.108;8.068;2022-07-23T14:07:41;27.20;92.70
45096;DHT22;30858;51.108;8.068;2022-07-23T14:10:10;27.00;93.10
45096;DHT22;30858;51.108;8.068;2022-07-23T14:12:35;27.20;92.80
45096;DHT22;30858;51.108;8.068;2022-07-23T14:15:02;27.50;91.00
45096;DHT22;30858;51.108;8.068;2022-07-23T14:17:28;27.40;90.50
45096;DHT22;30858;51.108;8.068;2022-07-23T14:19:54;27.00;91.10
45096;DHT22;30858;51.108;8.068;2022-07-23T14:22:20;27.00;91.50
45096;DHT22;30858;51.108;8.068;2022-07-23T14:24:45;26.80;92.40
45096;DHT22;30858;51.108;8.068;2022-07-23T14:27:11;26.60;92.10
45096;DHT22;30858;51.108;8.068;2022-07-23T14:29:36;26.70;93.30
45096;DHT22;30858;51.108;8.068;2022-07-23T14:32:03;27.30;92.30
45096;DHT22;30858;51.108;8.068;2022-07-23T14:34:29;27.00;91.70
45096;DHT22;30858;51.108;8.068;2022-07-23T14:36:54;27.10;92.50
45096;DHT22;30858;51.108;8.068;2022-07-23T14:39:20;27.40;93.00
45096;DHT22;30858;51.108;8.068;2022-07-23T14:41:46;27.50;91.10
45096;DHT22;30858;51.108;8.068;2022-07-23T14:44:11;27.50;90.70
45096;DHT22;30858;51.108;8.068;2022-07-23T14:46:37;27.00;92.00
45096;DHT22;30858;51.108;8.068;2022-07-23T14:49:03;26.40;93.00
45096;DHT22;30858;51.108;8.068;2022-07-23T14:51:29;26.30;94.60
45096;DHT22;30858;51.108;8.068;2022-07-23T14:53:54;26.20;94.80
45096;DHT22;30858;51.108;8.068;2022-07-23T14:56:20;26.50;93.10
45096;DHT22;30858;51.108;8.068;2022-07-23T14:58:46;26.90;92.60
45096;DHT22;30858;51.108;8.068;2022-07-23T15:01:12;26.70;93.20
45096;DHT22;30858;51.108;8.068;2022-07-23T15:03:37;26.80;94.30
45096;DHT22;30858;51.108;8.068;2022-07-23T15:06:04;27.00;92.00
45096;DHT22;30858;51.108;8.068;2022-07-23T15:08:30;26.90;92.70
45096;DHT22;30858;51.108;8.068;2022-07-23T15:10:56;26.70;92.50
45096;DHT22;30858;51.108;8.068;2022-07-23T15:13:21;26.80;94.30
45096;DHT22;30858;51.108;8.068;2022-07-23T15:15:47;27.00;92.50
45096;DHT22;30858;51.108;8.068;2022-07-23T15:18:12;27.00;93.20
45096;DHT22;30858;51.108;8.068;2022-07-23T15:20:38;27.20;93.30
45096;DHT22;30858;51.108;8.068;2022-07-23T15:23:06;27.40;92.10
45096;DHT22;30858;51.108;8.068;2022-07-23T15:25:32;27.20;91.80
45096;DHT22;30858;51.108;8.068;2022-07-23T15:27:58;27.40;92.70
45096;DHT22;30858;51.108;8.068;2022-07-23T15:30:25;27.30;92.30
45096;DHT22;30858;51.108;8.068;2022-07-23T15:32:51;27.00;93.20
45096;DHT22;30858;51.108;8.068;2022-07-23T15:35:17;27.20;92.50
45096;DHT22;30858;51.108;8.068;2022-07-23T15:37:42;27.20;92.90
45096;DHT22;30858;51.108;8.068;2022-07-23T15:40:09;27.60;92.00
45096;DHT22;30858;51.108;8.068;2022-07-23T15:42:35;27.60;91.40
45096;DHT22;30858;51.108;8.068;2022-07-23T15:45:01;27.80;92.30
45096;DHT22;30858;51.108;8.068;2022-07-23T15:47:27;27.80;90.80
45096;DHT22;30858;51.108;8.068;2022-07-23T15:49:52;27.80;91.50
45096;DHT22;30858;51.108;8.068;2022-07-23T15:52:18;27.40;91.90
45096;DHT22;30858;51.108;8.068;2022-07-23T15:54:43;27.20;92.00
45096;DHT22;30858;51.108;8.068;2022-07-23T15:57:09;26.90;92.00
45096;DHT22;30858;51.108;8.068;2022-07-23T15:59:35;27.10;91.70
45096;DHT22;30858;51.108;8.068;2022-07-23T16:02:01;27.30;93.00
45096;DHT22;30858;51.108;8.068;2022-07-23T16:04:27;27.50;93.50
45096;DHT22;30858;51.108;8.068;2022-07-23T16:06:52;27.80;91.20
45096;DHT22;30858;51.108;8.068;2022-07-23T16:09:18;27.80;90.40
45096;DHT22;30858;51.108;8.068;2022-07-23T16:11:43;28.10;90.80
45096;DHT22;30858;51.108;8.068;2022-07-23T16:14:09;28.00;90.00
45096;DHT22;30858;51.108;8.068;2022-07-23T16:16:35;28.60;90.10
45096;DHT22;30858;51.108;8.068;2022-07-23T16:19:00;28.10;90.70
45096;DHT22;30858;51.108;8.068;2022-07-23T16:21:26;27.80;90.70
45096;DHT22;30858;51.108;8.068;2022-07-23T16:23:52;27.80;90.30